createdAt,value
2022-10-17T00:00:59.838Z,17.66
2022-10-17T00:03:26.993Z,17.64
2022-10-17T00:05:54.038Z,17.61
2022-10-17T00:08:21.477Z,17.59
2022-10-17T00:11:08.497Z,17.56
2022-10-17T00:13:35.941Z,17.57
2022-10-17T00:16:02.868Z,17.53
2022-10-17T00:18:29.894Z,17.53
2022-10-17T00:20:56.863Z,17.51
2022-10-17T00:23:24.155Z,17.49
2022-10-17T00:26:05.780Z,17.47
2022-10-17T00:28:33.225Z,17.48
2022-10-17T00:31:04.566Z,17.48
2022-10-17T00:33:34.311Z,17.45
2022-10-17T00:36:07.271Z,17.44
2022-10-17T00:38:37.315Z,17.43
2022-10-17T00:41:05.073Z,17.43
2022-10-17T00:43:58.459Z,17.42
2022-10-17T00:46:36.687Z,17.42
2022-10-17T00:49:10.278Z,17.40
2022-10-17T00:51:53.105Z,17.41
2022-10-17T00:54:27.577Z,17.38
2022-10-17T00:56:55.319Z,17.36
2022-10-17T00:59:23.917Z,17.36
2022-10-17T01:02:16.841Z,17.33
2022-10-17T01:04:47.809Z,17.32
2022-10-17T01:07:14.799Z,17.30
2022-10-17T01:09:44.678Z,17.28
2022-10-17T01:12:37.044Z,17.27
2022-10-17T01:15:50.458Z,17.25
2022-10-17T01:18:37.665Z,17.25
2022-10-17T01:21:30.490Z,17.22
2022-10-17T01:24:44.281Z,17.20
2022-10-17T01:27:36.225Z,17.18
2022-10-17T01:30:24.194Z,17.17
2022-10-17T01:33:18.029Z,17.17
2022-10-17T01:36:18.919Z,17.18
2022-10-17T01:38:54.463Z,17.18
2022-10-17T01:41:39.656Z,17.17
2022-10-17T01:44:18.417Z,17.17
2022-10-17T01:46:51.315Z,17.17
2022-10-17T01:49:24.832Z,17.16
2022-10-17T01:52:15.202Z,17.15
2022-10-17T01:55:09.370Z,17.15
2022-10-17T01:57:42.869Z,17.14
2022-10-17T02:00:15.588Z,17.14
2022-10-17T02:02:45.343Z,17.12
2022-10-17T02:05:12.681Z,17.12
2022-10-17T02:07:43.357Z,17.13
2022-10-17T02:10:24.012Z,17.13
2022-10-17T02:13:18.361Z,17.13
2022-10-17T02:16:29.597Z,17.12
2022-10-17T02:19:36.907Z,17.10
2022-10-17T02:22:25.551Z,17.06
2022-10-17T02:25:19.689Z,17.05
2022-10-17T02:28:10.835Z,17.04
2022-10-17T02:31:03.734Z,17.01
2022-10-17T02:33:45.196Z,17.00
2022-10-17T02:36:19.235Z,17.00
2022-10-17T02:38:46.960Z,17.01
2022-10-17T02:41:18.432Z,17.02
2022-10-17T02:43:49.166Z,17.01
2022-10-17T02:46:22.506Z,16.97
2022-10-17T02:48:57.146Z,16.95
2022-10-17T02:51:43.832Z,16.92
2022-10-17T02:54:34.563Z,16.92
2022-10-17T02:57:14.992Z,16.90
2022-10-17T02:59:45.782Z,16.89
2022-10-17T03:02:13.264Z,16.87
2022-10-17T03:04:44.347Z,16.84
2022-10-17T03:07:11.438Z,16.82
2022-10-17T03:09:38.528Z,16.82
2022-10-17T03:12:06.217Z,16.81
2022-10-17T03:14:34.728Z,16.80
2022-10-17T03:17:04.016Z,16.79
2022-10-17T03:19:31.419Z,16.78
2022-10-17T03:21:58.574Z,16.77
2022-10-17T03:24:25.538Z,16.76
2022-10-17T03:26:52.482Z,16.74
2022-10-17T03:29:19.696Z,16.73
2022-10-17T03:31:47.740Z,16.74
2022-10-17T03:34:17.692Z,16.73
2022-10-17T03:36:45.871Z,16.71
2022-10-17T03:39:13.239Z,16.71
2022-10-17T03:41:40.301Z,16.70
2022-10-17T03:44:07.890Z,16.70
2022-10-17T03:46:35.417Z,16.68
2022-10-17T03:49:02.476Z,16.68
2022-10-17T03:51:29.879Z,16.67
2022-10-17T03:54:03.002Z,16.66
2022-10-17T03:56:30.080Z,16.66
2022-10-17T03:59:01.991Z,16.64
2022-10-17T04:01:30.916Z,16.63
2022-10-17T04:03:58.157Z,16.63
2022-10-17T04:06:29.497Z,16.60
2022-10-17T04:08:56.709Z,16.59
2022-10-17T04:11:33.207Z,16.58
2022-10-17T04:14:03.114Z,16.57
2022-10-17T04:16:30.667Z,16.58
2022-10-17T04:19:01.720Z,16.56
2022-10-17T04:21:34.184Z,16.55
2022-10-17T04:24:07.154Z,16.52
2022-10-17T04:26:50.132Z,16.50
2022-10-17T04:29:18.635Z,16.48
2022-10-17T04:31:49.892Z,16.46
2022-10-17T04:34:30.803Z,16.46
2022-10-17T04:36:57.797Z,16.46
2022-10-17T04:39:24.756Z,16.46
2022-10-17T04:41:52.196Z,16.45
2022-10-17T04:44:20.854Z,16.47
2022-10-17T04:46:51.744Z,16.47
2022-10-17T04:49:20.003Z,16.48
2022-10-17T04:51:49.849Z,16.50
2022-10-17T04:54:23.565Z,16.52
2022-10-17T04:56:57.578Z,16.53
2022-10-17T04:59:26.018Z,16.53
2022-10-17T05:02:04.273Z,16.54
2022-10-17T05:04:33.201Z,16.54
2022-10-17T05:07:00.702Z,16.58
2022-10-17T05:09:48.024Z,16.59
2022-10-17T05:12:18.103Z,16.60
2022-10-17T05:14:46.681Z,16.62
2022-10-17T05:17:14.841Z,16.64
2022-10-17T05:19:41.867Z,16.65
2022-10-17T05:22:09.519Z,16.68
2022-10-17T05:24:36.826Z,16.68
2022-10-17T05:27:04.247Z,16.69
2022-10-17T05:29:31.378Z,16.69
2022-10-17T05:32:06.754Z,16.69
2022-10-17T05:34:35.195Z,16.70
2022-10-17T05:37:02.356Z,16.71
2022-10-17T05:39:29.646Z,16.71
2022-10-17T05:41:58.261Z,16.74
2022-10-17T05:44:26.086Z,16.75
2022-10-17T05:46:57.598Z,16.76
2022-10-17T05:49:33.397Z,16.78
2022-10-17T05:52:12.712Z,16.79
2022-10-17T05:54:55.366Z,16.82
2022-10-17T05:57:26.335Z,16.84
2022-10-17T05:59:54.696Z,16.86
2022-10-17T06:02:22.254Z,16.86
2022-10-17T06:04:50.559Z,16.87
2022-10-17T06:07:20.392Z,16.89
2022-10-17T06:09:49.239Z,16.91
2022-10-17T06:12:16.978Z,16.90
2022-10-17T06:14:45.240Z,16.90
2022-10-17T06:17:15.945Z,16.89
2022-10-17T06:19:44.931Z,16.91
2022-10-17T06:22:14.660Z,16.95
2022-10-17T06:24:42.610Z,16.96
2022-10-17T06:27:12.118Z,16.98
2022-10-17T06:29:40.921Z,17.01
2022-10-17T06:32:11.085Z,17.03
2022-10-17T06:34:41.934Z,17.01
2022-10-17T06:37:09.990Z,17.04
2022-10-17T06:39:39.906Z,17.07
2022-10-17T06:42:16.585Z,17.10
2022-10-17T06:45:08.589Z,17.14
2022-10-17T06:47:53.714Z,17.18
2022-10-17T06:50:35.826Z,17.22
2022-10-17T06:53:25.029Z,17.24
2022-10-17T06:55:54.132Z,17.27
2022-10-17T06:58:54.782Z,17.29
2022-10-17T07:01:47.127Z,17.35
2022-10-17T07:04:15.955Z,17.38
2022-10-17T07:06:44.161Z,17.42
2022-10-17T07:09:17.143Z,17.44
2022-10-17T07:11:45.287Z,17.47
2022-10-17T07:14:16.282Z,17.51
2022-10-17T07:16:43.388Z,17.53
2022-10-17T07:19:19.688Z,17.56
2022-10-17T07:21:46.793Z,17.59
2022-10-17T07:24:13.777Z,17.61
2022-10-17T07:26:45.801Z,17.64
2022-10-17T07:29:13.511Z,17.65
2022-10-17T07:31:45.733Z,17.67
2022-10-17T07:34:13.018Z,17.69
2022-10-17T07:36:40.849Z,17.71
2022-10-17T07:39:08.902Z,17.74
2022-10-17T07:41:38.062Z,17.78
2022-10-17T07:44:05.879Z,17.80
2022-10-17T07:46:37.602Z,17.84
2022-10-17T07:49:05.666Z,17.87
2022-10-17T07:51:34.132Z,17.88
2022-10-17T07:54:01.489Z,17.92
2022-10-17T07:56:29.734Z,17.93
2022-10-17T08:01:25.908Z,18.02
2022-10-17T08:03:52.788Z,18.02
2022-10-17T08:06:19.979Z,18.04
2022-10-17T08:08:46.890Z,18.06
2022-10-17T08:11:15.666Z,18.10
2022-10-17T08:13:43.650Z,18.11
2022-10-17T08:16:13.331Z,18.11
2022-10-17T08:18:42.577Z,18.13
2022-10-17T08:21:11.133Z,18.15
2022-10-17T08:23:38.273Z,18.17
2022-10-17T08:26:10.700Z,18.19
2022-10-17T08:28:40.232Z,18.19
2022-10-17T08:31:11.706Z,18.22
2022-10-17T08:33:38.995Z,18.24
2022-10-17T08:36:07.152Z,18.27
2022-10-17T08:38:37.589Z,18.27
2022-10-17T08:41:47.881Z,18.28
2022-10-17T08:44:41.947Z,18.27
2022-10-17T08:47:36.568Z,18.28
2022-10-17T08:50:08.645Z,18.21
2022-10-17T08:52:49.324Z,18.24
2022-10-17T08:55:41.491Z,18.30
2022-10-17T08:58:24.094Z,18.34
2022-10-17T09:01:24.672Z,18.29
2022-10-17T09:04:22.908Z,18.35
2022-10-17T09:07:27.373Z,18.40
2022-10-17T09:10:04.619Z,18.48
2022-10-17T09:13:07.707Z,18.57
2022-10-17T09:16:07.465Z,18.68
2022-10-17T09:18:40.189Z,18.77
2022-10-17T09:21:21.256Z,18.78
2022-10-17T09:24:09.003Z,18.76
2022-10-17T09:26:39.661Z,18.83
2022-10-17T09:29:40.177Z,18.90
2022-10-17T09:32:23.281Z,18.94
2022-10-17T09:34:53.378Z,18.99
2022-10-17T09:37:31.509Z,19.07
2022-10-17T09:39:58.550Z,19.11
2022-10-17T09:42:28.479Z,19.15
2022-10-17T09:45:01.468Z,19.24
2022-10-17T09:47:41.489Z,19.32
2022-10-17T09:50:28.553Z,19.43
2022-10-17T09:53:19.650Z,19.51
2022-10-17T09:55:51.456Z,19.58
2022-10-17T09:58:20.697Z,19.64
2022-10-17T10:00:49.202Z,19.71
2022-10-17T10:03:25.667Z,19.78
2022-10-17T10:06:01.254Z,19.87
2022-10-17T10:08:38.206Z,19.94
2022-10-17T10:11:13.393Z,19.99
2022-10-17T10:13:43.020Z,20.05
2022-10-17T10:16:31.895Z,20.12
2022-10-17T10:18:59.368Z,20.18
2022-10-17T10:21:27.740Z,20.21
2022-10-17T10:24:09.834Z,20.27
2022-10-17T10:26:45.178Z,20.32
2022-10-17T10:29:49.191Z,20.39
2022-10-17T10:32:26.878Z,20.42
2022-10-17T10:35:00.181Z,20.49
2022-10-17T10:37:39.851Z,20.54
2022-10-17T10:40:23.488Z,20.58
2022-10-17T10:42:57.217Z,20.65
2022-10-17T10:45:47.621Z,20.70
2022-10-17T10:48:35.893Z,20.74
2022-10-17T10:51:19.874Z,20.77
2022-10-17T10:54:21.841Z,20.84
2022-10-17T10:56:59.300Z,20.93
2022-10-17T10:59:36.583Z,21.01
2022-10-17T11:02:30.496Z,21.06
2022-10-17T11:05:05.334Z,21.12
2022-10-17T11:07:39.859Z,21.17
2022-10-17T11:10:39.506Z,21.18
2022-10-17T11:13:16.201Z,21.22
2022-10-17T11:15:51.769Z,21.30
2022-10-17T11:18:35.150Z,21.37
2022-10-17T11:21:46.638Z,21.46
2022-10-17T11:24:25.687Z,21.41
2022-10-17T11:27:01.814Z,21.44
2022-10-17T11:29:33.044Z,21.52
2022-10-17T11:32:15.499Z,21.60
2022-10-17T11:34:56.590Z,21.61
2022-10-17T11:37:34.468Z,21.68
2022-10-17T11:40:30.892Z,21.74
2022-10-17T11:43:20.665Z,21.79
2022-10-17T11:45:57.347Z,21.78
2022-10-17T11:48:32.384Z,21.87
2022-10-17T11:54:20.814Z,21.98
2022-10-17T11:57:10.761Z,22.04
2022-10-17T12:00:10.247Z,22.12
2022-10-17T12:03:24.611Z,22.11
2022-10-17T12:06:08.636Z,22.17
2022-10-17T12:08:44.743Z,22.20
2022-10-17T12:11:56.446Z,22.29
2022-10-17T12:14:36.710Z,22.30
2022-10-17T12:17:23.215Z,22.36
2022-10-17T12:19:50.450Z,22.40
2022-10-17T12:22:21.763Z,22.46
2022-10-17T12:24:58.057Z,22.52
2022-10-17T12:27:45.864Z,22.55
2022-10-17T12:30:13.531Z,22.58
2022-10-17T12:33:07.101Z,22.60
2022-10-17T12:35:37.937Z,22.64
2022-10-17T12:38:17.003Z,22.72
2022-10-17T12:40:48.520Z,22.80
2022-10-17T12:43:15.885Z,22.90
2022-10-17T12:45:59.156Z,23.00
2022-10-17T12:48:38.646Z,23.08
2022-10-17T12:51:35.411Z,23.09
2022-10-17T12:54:15.212Z,23.09
2022-10-17T12:56:48.192Z,23.15
2022-10-17T12:59:22.508Z,23.20
2022-10-17T13:01:57.706Z,23.25
2022-10-17T13:04:26.013Z,23.24
2022-10-17T13:06:58.665Z,23.32
2022-10-17T13:09:37.425Z,23.36
2022-10-17T13:12:13.192Z,23.37
2022-10-17T13:14:43.303Z,23.44
2022-10-17T13:17:28.291Z,23.44
2022-10-17T13:19:56.366Z,23.45
2022-10-17T13:22:28.148Z,23.51
2022-10-17T13:25:16.020Z,23.59
2022-10-17T13:27:43.472Z,23.64
2022-10-17T13:30:27.947Z,23.71
2022-10-17T13:32:58.225Z,23.76
2022-10-17T13:35:55.308Z,23.77
2022-10-17T13:38:17.276Z,23.81
2022-10-17T13:40:50.023Z,23.85
2022-10-17T13:43:24.238Z,23.90
2022-10-17T13:46:02.264Z,23.92
2022-10-17T13:48:38.315Z,23.99
2022-10-17T13:51:10.294Z,24.01
2022-10-17T13:53:42.513Z,24.01
2022-10-17T13:56:29.969Z,24.03
2022-10-17T13:59:18.447Z,24.02
2022-10-17T14:01:45.972Z,24.05
2022-10-17T14:04:19.905Z,24.10
2022-10-17T14:06:51.314Z,24.09
2022-10-17T14:09:26.144Z,24.09
2022-10-17T14:12:11.165Z,24.13
2022-10-17T14:15:05.181Z,24.07
2022-10-17T14:17:29.612Z,24.03
2022-10-17T14:20:36.329Z,24.03
2022-10-17T14:23:20.905Z,23.97
2022-10-17T14:25:41.128Z,23.94
2022-10-17T14:28:11.735Z,23.90
2022-10-17T14:30:56.210Z,23.86
2022-10-17T14:33:30.773Z,23.79
2022-10-17T14:36:00.720Z,23.73
2022-10-17T14:38:29.995Z,23.72
2022-10-17T14:41:29.687Z,23.69
2022-10-17T14:43:56.245Z,23.66
2022-10-17T14:46:24.567Z,23.62
2022-10-17T14:49:02.601Z,23.59
2022-10-17T14:51:39.961Z,23.55
2022-10-17T14:54:26.273Z,23.50
2022-10-17T14:56:54.965Z,23.45
2022-10-17T14:59:52.363Z,23.42
2022-10-17T15:02:13.849Z,23.38
2022-10-17T15:04:41.290Z,23.34
2022-10-17T15:07:14.530Z,23.32
2022-10-17T15:09:43.075Z,23.30
2022-10-17T15:12:20.273Z,23.30
2022-10-17T15:14:48.614Z,23.27
2022-10-17T15:17:38.000Z,23.23
2022-10-17T15:20:20.435Z,23.20
2022-10-17T15:22:48.678Z,23.16
2022-10-17T15:25:15.653Z,23.14
2022-10-17T15:27:42.543Z,23.11
2022-10-17T15:30:32.220Z,23.08
2022-10-17T15:32:59.947Z,23.05
2022-10-17T15:35:28.373Z,23.01
2022-10-17T15:37:55.861Z,22.96
2022-10-17T15:40:29.498Z,22.92
2022-10-17T15:42:57.366Z,22.86
2022-10-17T15:45:24.458Z,22.83
2022-10-17T15:47:59.235Z,22.81
2022-10-17T15:50:29.106Z,22.76
2022-10-17T15:52:56.590Z,22.72
2022-10-17T15:55:23.956Z,22.68
2022-10-17T15:57:51.205Z,22.63
2022-10-17T16:00:24.837Z,22.58
2022-10-17T16:02:51.936Z,22.51
2022-10-17T16:05:29.174Z,22.46
2022-10-17T16:07:57.858Z,22.41
2022-10-17T16:10:28.262Z,22.37
2022-10-17T16:12:56.239Z,22.31
2022-10-17T16:15:26.599Z,22.26
2022-10-17T16:17:57.387Z,22.21
2022-10-17T16:20:26.209Z,22.15
2022-10-17T16:22:59.892Z,22.11
2022-10-17T16:25:28.908Z,21.99
2022-10-17T16:27:59.610Z,21.96
2022-10-17T16:30:30.123Z,21.92
2022-10-17T16:32:57.370Z,21.88
2022-10-17T16:35:33.256Z,21.84
2022-10-17T16:38:05.572Z,21.80
2022-10-17T16:40:32.753Z,21.74
2022-10-17T16:42:59.998Z,21.69
2022-10-17T16:45:27.169Z,21.65
2022-10-17T16:47:54.273Z,21.60
2022-10-17T16:50:21.581Z,21.55
2022-10-17T16:52:48.748Z,21.49
2022-10-17T16:55:18.851Z,21.46
2022-10-17T16:57:46.308Z,21.40
2022-10-17T17:00:15.948Z,21.36
2022-10-17T17:02:43.425Z,21.32
2022-10-17T17:05:10.797Z,21.27
2022-10-17T17:07:38.019Z,21.22
2022-10-17T17:10:06.128Z,21.18
2022-10-17T17:12:35.696Z,21.14
2022-10-17T17:15:04.325Z,21.11
2022-10-17T17:17:49.272Z,21.07
2022-10-17T17:20:25.147Z,21.02
2022-10-17T17:22:52.899Z,21.00
2022-10-17T17:25:20.000Z,20.98
2022-10-17T17:27:47.059Z,20.95
2022-10-17T17:30:14.081Z,20.92
2022-10-17T17:32:41.101Z,20.91
2022-10-17T17:35:09.496Z,20.87
2022-10-17T17:37:36.602Z,20.84
2022-10-17T17:40:05.921Z,20.83
2022-10-17T17:42:32.911Z,20.80
2022-10-17T17:44:59.994Z,20.77
2022-10-17T17:47:29.469Z,20.73
2022-10-17T17:49:56.921Z,20.70
2022-10-17T17:52:23.863Z,20.66
2022-10-17T17:54:51.111Z,20.65
2022-10-17T17:57:18.554Z,20.63
2022-10-17T17:59:45.538Z,20.61
2022-10-17T18:02:12.629Z,20.58
2022-10-17T18:04:39.645Z,20.55
2022-10-17T18:07:06.773Z,20.52
2022-10-17T18:09:33.837Z,20.51
2022-10-17T18:12:00.810Z,20.49
2022-10-17T18:14:27.846Z,20.47
2022-10-17T18:16:54.800Z,20.45
2022-10-17T18:19:23.800Z,20.42
2022-10-17T18:21:50.737Z,20.41
2022-10-17T18:24:17.597Z,20.38
2022-10-17T18:26:44.691Z,20.34
2022-10-17T18:29:12.849Z,20.30
2022-10-17T18:31:39.818Z,20.25
2022-10-17T18:34:06.934Z,20.24
2022-10-17T18:36:35.516Z,20.20
2022-10-17T18:39:04.707Z,20.17
2022-10-17T18:41:32.221Z,20.15
2022-10-17T18:43:59.376Z,20.13
2022-10-17T18:46:40.830Z,20.10
2022-10-17T18:49:09.900Z,20.08
2022-10-17T18:51:37.543Z,20.05
2022-10-17T18:54:04.919Z,20.04
2022-10-17T18:56:32.059Z,20.02
2022-10-17T18:59:00.292Z,20.01
2022-10-17T19:01:28.537Z,19.98
2022-10-17T19:03:58.654Z,19.97
2022-10-17T19:06:31.719Z,19.95
2022-10-17T19:09:02.415Z,19.91
2022-10-17T19:11:31.938Z,19.89
2022-10-17T19:14:02.590Z,19.88
2022-10-17T19:16:34.610Z,19.83
2022-10-17T19:19:05.991Z,19.81
2022-10-17T19:21:34.606Z,19.79
2022-10-17T19:24:04.941Z,19.77
2022-10-17T19:26:36.176Z,19.74
2022-10-17T19:29:04.816Z,19.70
2022-10-17T19:31:33.749Z,19.69
2022-10-17T19:34:01.171Z,19.67
2022-10-17T19:36:33.758Z,19.65
2022-10-17T19:39:23.362Z,19.61
2022-10-17T19:41:50.660Z,19.59
2022-10-17T19:44:18.346Z,19.58
2022-10-17T19:46:47.046Z,19.54
2022-10-17T19:49:14.853Z,19.53
2022-10-17T19:51:41.869Z,19.51
2022-10-17T19:54:09.748Z,19.52
2022-10-17T19:56:38.391Z,19.52
2022-10-17T19:59:07.465Z,19.51
2022-10-17T20:01:38.869Z,19.47
2022-10-17T20:04:08.649Z,19.44
2022-10-17T20:06:35.772Z,19.42
2022-10-17T20:09:05.092Z,19.38
2022-10-17T20:11:32.586Z,19.37
2022-10-17T20:14:01.995Z,19.36
2022-10-17T20:16:33.327Z,19.33
2022-10-17T20:19:11.168Z,19.29
2022-10-17T20:21:39.894Z,19.25
2022-10-17T20:24:11.217Z,19.22
2022-10-17T20:26:39.625Z,19.16
2022-10-17T20:29:15.631Z,19.15
2022-10-17T20:31:44.999Z,19.15
2022-10-17T20:34:15.269Z,19.13
2022-10-17T20:36:42.576Z,19.12
2022-10-17T20:39:12.310Z,19.08
2022-10-17T20:41:39.884Z,19.06
2022-10-17T20:44:07.533Z,19.05
2022-10-17T20:46:38.307Z,19.02
2022-10-17T20:49:13.720Z,19.01
2022-10-17T20:51:41.281Z,18.99
2022-10-17T20:54:08.368Z,18.98
2022-10-17T20:56:36.026Z,18.97
2022-10-17T20:59:12.365Z,18.94
2022-10-17T21:01:40.009Z,18.91
2022-10-17T21:04:33.318Z,18.90
2022-10-17T21:06:53.971Z,18.87
2022-10-17T21:09:22.219Z,18.83
2022-10-17T21:11:55.681Z,18.81
2022-10-17T21:14:24.987Z,18.78
2022-10-17T21:16:52.412Z,18.77
2022-10-17T21:19:20.063Z,18.77
2022-10-17T21:21:47.640Z,18.74
2022-10-17T21:24:18.089Z,18.71
2022-10-17T21:26:47.980Z,18.67
2022-10-17T21:29:15.192Z,18.64
2022-10-17T21:31:44.679Z,18.61
2022-10-17T21:34:18.485Z,18.60
2022-10-17T21:36:45.807Z,18.59
2022-10-17T21:39:14.661Z,18.58
2022-10-17T21:41:43.204Z,18.57
2022-10-17T21:44:18.435Z,18.54
2022-10-17T21:46:46.476Z,18.51
2022-10-17T21:49:16.403Z,18.48
2022-10-17T21:51:44.629Z,18.45
2022-10-17T21:54:12.087Z,18.42
2022-10-17T21:56:39.559Z,18.41
2022-10-17T21:59:07.153Z,18.43
2022-10-17T22:01:37.913Z,18.41
2022-10-17T22:04:11.478Z,18.39
2022-10-17T22:06:41.311Z,18.38
2022-10-17T22:09:15.858Z,18.36
2022-10-17T22:11:47.475Z,18.37
2022-10-17T22:14:18.274Z,18.36
2022-10-17T22:16:46.843Z,18.37
2022-10-17T22:19:18.877Z,18.34
2022-10-17T22:21:46.088Z,18.31
2022-10-17T22:24:16.110Z,18.27
2022-10-17T22:26:44.682Z,18.25
2022-10-17T22:29:12.375Z,18.23
2022-10-17T22:31:39.923Z,18.24
2022-10-17T22:34:08.099Z,18.23
2022-10-17T22:36:35.619Z,18.20
2022-10-17T22:39:04.145Z,18.20
2022-10-17T22:41:31.617Z,18.17
2022-10-17T22:43:58.647Z,18.16
2022-10-17T22:46:25.952Z,18.16
2022-10-17T22:48:53.034Z,18.17
2022-10-17T22:51:20.820Z,18.16
2022-10-17T22:53:47.835Z,18.17
2022-10-17T22:56:18.799Z,18.16
2022-10-17T22:58:46.663Z,18.14
2022-10-17T23:01:21.511Z,18.12
2022-10-17T23:03:49.262Z,18.11
2022-10-17T23:06:16.892Z,18.11
2022-10-17T23:08:44.422Z,18.08
2022-10-17T23:11:11.743Z,18.07
2022-10-17T23:13:40.752Z,18.05
2022-10-17T23:16:08.566Z,18.04
2022-10-17T23:18:37.302Z,18.04
2022-10-17T23:21:04.812Z,18.00
2022-10-17T23:23:31.782Z,17.98
2022-10-17T23:26:11.427Z,17.94
2022-10-17T23:28:38.644Z,17.95
2022-10-17T23:31:19.126Z,17.94
2022-10-17T23:33:48.420Z,17.91
2022-10-17T23:36:19.298Z,17.91
2022-10-17T23:38:47.493Z,17.89
2022-10-17T23:41:15.251Z,17.86
2022-10-17T23:43:43.489Z,17.82
2022-10-17T23:46:11.358Z,17.79
2022-10-17T23:48:38.968Z,17.77
2022-10-17T23:51:07.645Z,17.75
2022-10-17T23:53:36.343Z,17.73
2022-10-17T23:56:04.301Z,17.70
2022-10-17T23:58:31.491Z,17.68
